sensor_id;sensor_type;location;lat;lon;timestamp;temperature;humidity
10905;DHT22;5505;51.450;9.254;2024-01-30T00:01:32;3.20;99.90
10905;DHT22;5505;51.450;9.254;2024-01-30T00:04:19;3.00;99.90
10905;DHT22;5505;51.450;9.254;2024-01-30T00:07:05;3.00;99.90
10905;DHT22;5505;51.450;9.254;2024-01-30T00:09:52;3.00;99.90
10905;DHT22;5505;51.450;9.254;2024-01-30T00:12:40;3.00;99.90
10905;DHT22;5505;51.450;9.254;2024-01-30T00:15:27;3.00;99.90
10905;DHT22;5505;51.450;9.254;2024-01-30T00:18:14;2.90;99.90
10905;DHT22;5505;51.450;9.254;2024-01-30T00:21:01;2.90;99.90
10905;DHT22;5505;51.450;9.254;2024-01-30T00:23:48;4.00;99.90
10905;DHT22;5505;51.450;9.254;2024-01-30T00:26:35;2.70;99.90
10905;DHT22;5505;51.450;9.254;2024-01-30T00:29:23;2.70;99.90
10905;DHT22;5505;51.450;9.254;2024-01-30T00:32:15;2.70;99.90
10905;DHT22;5505;51.450;9.254;2024-01-30T00:35:01;2.70;99.90
10905;DHT22;5505;51.450;9.254;2024-01-30T00:37:48;2.80;99.90
10905;DHT22;5505;51.450;9.254;2024-01-30T00:40:35;2.70;99.90
10905;DHT22;5505;51.450;9.254;2024-01-30T00:43:22;2.60;99.90
10905;DHT22;5505;51.450;9.254;2024-01-30T00:46:11;2.60;99.90
10905;DHT22;5505;51.450;9.254;2024-01-30T00:48:58;2.80;99.90
10905;DHT22;5505;51.450;9.254;2024-01-30T00:51:45;3.00;99.90
10905;DHT22;5505;51.450;9.254;2024-01-30T00:54:32;4.60;99.90
10905;DHT22;5505;51.450;9.254;2024-01-30T00:57:18;3.40;99.90
10905;DHT22;5505;51.450;9.254;2024-01-30T01:00:06;3.50;99.90
10905;DHT22;5505;51.450;9.254;2024-01-30T01:02:56;3.60;99.90
10905;DHT22;5505;51.450;9.254;2024-01-30T01:05:42;3.60;99.90
10905;DHT22;5505;51.450;9.254;2024-01-30T01:08:29;3.70;99.90
10905;DHT22;5505;51.450;9.254;2024-01-30T01:11:16;3.80;99.90
10905;DHT22;5505;51.450;9.254;2024-01-30T01:14:05;3.90;99.90
10905;DHT22;5505;51.450;9.254;2024-01-30T01:16:52;4.00;99.90
10905;DHT22;5505;51.450;9.254;2024-01-30T01:19:40;4.10;99.90
10905;DHT22;5505;51.450;9.254;2024-01-30T01:22:27;4.10;99.90
10905;DHT22;5505;51.450;9.254;2024-01-30T01:25:14;4.20;99.90
10905;DHT22;5505;51.450;9.254;2024-01-30T01:28:01;4.20;99.90
10905;DHT22;5505;51.450;9.254;2024-01-30T01:30:48;4.20;99.90
10905;DHT22;5505;51.450;9.254;2024-01-30T01:33:35;4.20;99.90
10905;DHT22;5505;51.450;9.254;2024-01-30T01:36:24;4.30;99.90
10905;DHT22;5505;51.450;9.254;2024-01-30T01:39:11;4.20;99.90
10905;DHT22;5505;51.450;9.254;2024-01-30T01:41:58;4.20;99.90
10905;DHT22;5505;51.450;9.254;2024-01-30T01:44:45;4.20;99.90
10905;DHT22;5505;51.450;9.254;2024-01-30T01:47:31;4.10;99.90
10905;DHT22;5505;51.450;9.254;2024-01-30T01:50:18;3.70;99.90
10905;DHT22;5505;51.450;9.254;2024-01-30T01:53:08;3.50;99.90
10905;DHT22;5505;51.450;9.254;2024-01-30T01:55:55;3.30;99.90
10905;DHT22;5505;51.450;9.254;2024-01-30T01:58:44;3.10;99.90
10905;DHT22;5505;51.450;9.254;2024-01-30T02:01:33;3.00;99.90
10905;DHT22;5505;51.450;9.254;2024-01-30T02:04:20;2.90;99.90
10905;DHT22;5505;51.450;9.254;2024-01-30T02:07:06;2.80;99.90
10905;DHT22;5505;51.450;9.254;2024-01-30T02:09:56;2.90;99.90
10905;DHT22;5505;51.450;9.254;2024-01-30T02:12:43;2.70;99.90
10905;DHT22;5505;51.450;9.254;2024-01-30T02:15:30;2.70;99.90
10905;DHT22;5505;51.450;9.254;2024-01-30T02:18:17;2.60;99.90
10905;DHT22;5505;51.450;9.254;2024-01-30T02:21:06;2.50;99.90
10905;DHT22;5505;51.450;9.254;2024-01-30T02:23:53;2.50;99.90
10905;DHT22;5505;51.450;9.254;2024-01-30T02:26:41;2.40;99.90
10905;DHT22;5505;51.450;9.254;2024-01-30T02:29:29;2.40;99.90
10905;DHT22;5505;51.450;9.254;2024-01-30T02:32:16;2.50;99.90
10905;DHT22;5505;51.450;9.254;2024-01-30T02:35:03;2.70;99.90
10905;DHT22;5505;51.450;9.254;2024-01-30T02:37:51;2.80;99.90
10905;DHT22;5505;51.450;9.254;2024-01-30T02:40:38;2.90;99.90
10905;DHT22;5505;51.450;9.254;2024-01-30T02:43:25;3.00;99.90
10905;DHT22;5505;51.450;9.254;2024-01-30T02:46:12;3.00;99.90
10905;DHT22;5505;51.450;9.254;2024-01-30T02:48:59;3.00;99.90
10905;DHT22;5505;51.450;9.254;2024-01-30T02:51:45;3.10;99.90
10905;DHT22;5505;51.450;9.254;2024-01-30T02:54:33;3.30;99.90
10905;DHT22;5505;51.450;9.254;2024-01-30T02:57:20;3.40;99.90
10905;DHT22;5505;51.450;9.254;2024-01-30T03:00:08;3.40;99.90
10905;DHT22;5505;51.450;9.254;2024-01-30T03:02:55;3.40;99.90
10905;DHT22;5505;51.450;9.254;2024-01-30T03:05:42;3.40;99.90
10905;DHT22;5505;51.450;9.254;2024-01-30T03:08:29;3.50;99.90
10905;DHT22;5505;51.450;9.254;2024-01-30T03:11:17;3.50;99.90
10905;DHT22;5505;51.450;9.254;2024-01-30T03:14:04;3.40;99.90
10905;DHT22;5505;51.450;9.254;2024-01-30T03:16:50;3.30;99.90
10905;DHT22;5505;51.450;9.254;2024-01-30T03:19:37;3.30;99.90
10905;DHT22;5505;51.450;9.254;2024-01-30T03:22:24;3.20;99.90
10905;DHT22;5505;51.450;9.254;2024-01-30T03:25:11;3.20;99.90
10905;DHT22;5505;51.450;9.254;2024-01-30T03:27:59;3.00;99.90
10905;DHT22;5505;51.450;9.254;2024-01-30T03:30:46;2.90;99.90
10905;DHT22;5505;51.450;9.254;2024-01-30T03:33:32;2.90;99.90
10905;DHT22;5505;51.450;9.254;2024-01-30T03:36:20;2.90;99.90
10905;DHT22;5505;51.450;9.254;2024-01-30T03:39:06;2.80;99.90
10905;DHT22;5505;51.450;9.254;2024-01-30T03:41:53;2.80;99.90
10905;DHT22;5505;51.450;9.254;2024-01-30T03:44:41;2.80;99.90
10905;DHT22;5505;51.450;9.254;2024-01-30T03:47:29;2.70;99.90
10905;DHT22;5505;51.450;9.254;2024-01-30T03:50:16;2.80;99.90
10905;DHT22;5505;51.450;9.254;2024-01-30T03:53:03;2.80;99.90
10905;DHT22;5505;51.450;9.254;2024-01-30T03:55:49;2.90;99.90
10905;DHT22;5505;51.450;9.254;2024-01-30T03:58:36;2.90;99.90
10905;DHT22;5505;51.450;9.254;2024-01-30T04:01:24;2.90;99.90
10905;DHT22;5505;51.450;9.254;2024-01-30T04:04:11;2.80;99.90
10905;DHT22;5505;51.450;9.254;2024-01-30T04:06:58;2.90;99.90
10905;DHT22;5505;51.450;9.254;2024-01-30T04:09:45;3.00;99.90
10905;DHT22;5505;51.450;9.254;2024-01-30T04:12:32;3.00;99.90
10905;DHT22;5505;51.450;9.254;2024-01-30T04:15:19;3.00;99.90
10905;DHT22;5505;51.450;9.254;2024-01-30T04:18:07;2.90;99.90
10905;DHT22;5505;51.450;9.254;2024-01-30T04:20:54;2.90;99.90
10905;DHT22;5505;51.450;9.254;2024-01-30T04:23:41;3.00;99.90
10905;DHT22;5505;51.450;9.254;2024-01-30T04:26:28;3.10;99.90
10905;DHT22;5505;51.450;9.254;2024-01-30T04:29:14;3.30;99.90
10905;DHT22;5505;51.450;9.254;2024-01-30T04:32:01;3.40;99.90
10905;DHT22;5505;51.450;9.254;2024-01-30T04:34:49;3.40;99.90
10905;DHT22;5505;51.450;9.254;2024-01-30T04:37:36;3.50;99.90
10905;DHT22;5505;51.450;9.254;2024-01-30T04:40:23;3.40;99.90
10905;DHT22;5505;51.450;9.254;2024-01-30T04:43:10;4.70;99.90
10905;DHT22;5505;51.450;9.254;2024-01-30T04:45:58;3.30;99.90
10905;DHT22;5505;51.450;9.254;2024-01-30T04:48:45;3.30;99.90
10905;DHT22;5505;51.450;9.254;2024-01-30T04:51:33;4.10;99.90
10905;DHT22;5505;51.450;9.254;2024-01-30T04:54:20;3.60;99.90
10905;DHT22;5505;51.450;9.254;2024-01-30T04:57:08;3.70;99.90
10905;DHT22;5505;51.450;9.254;2024-01-30T04:59:57;3.70;99.90
10905;DHT22;5505;51.450;9.254;2024-01-30T05:02:44;3.90;99.90
10905;DHT22;5505;51.450;9.254;2024-01-30T05:05:31;4.00;99.90
10905;DHT22;5505;51.450;9.254;2024-01-30T05:08:19;4.10;99.90
10905;DHT22;5505;51.450;9.254;2024-01-30T05:11:06;4.10;99.90
10905;DHT22;5505;51.450;9.254;2024-01-30T05:13:53;4.10;99.90
10905;DHT22;5505;51.450;9.254;2024-01-30T05:16:39;4.00;99.90
10905;DHT22;5505;51.450;9.254;2024-01-30T05:19:26;3.90;99.90
10905;DHT22;5505;51.450;9.254;2024-01-30T05:22:13;3.90;99.90
10905;DHT22;5505;51.450;9.254;2024-01-30T05:25:02;3.80;99.90
10905;DHT22;5505;51.450;9.254;2024-01-30T05:27:49;4.00;99.90
10905;DHT22;5505;51.450;9.254;2024-01-30T05:30:36;4.30;99.90
10905;DHT22;5505;51.450;9.254;2024-01-30T05:33:23;4.50;99.90
10905;DHT22;5505;51.450;9.254;2024-01-30T05:36:11;4.60;99.90
10905;DHT22;5505;51.450;9.254;2024-01-30T05:38:58;4.80;99.90
10905;DHT22;5505;51.450;9.254;2024-01-30T05:41:46;4.90;99.90
10905;DHT22;5505;51.450;9.254;2024-01-30T05:44:33;5.00;99.90
10905;DHT22;5505;51.450;9.254;2024-01-30T05:47:20;6.80;99.90
10905;DHT22;5505;51.450;9.254;2024-01-30T05:50:07;5.00;99.90
10905;DHT22;5505;51.450;9.254;2024-01-30T05:52:54;5.10;99.90
10905;DHT22;5505;51.450;9.254;2024-01-30T05:55:41;5.20;99.90
10905;DHT22;5505;51.450;9.254;2024-01-30T05:58:29;5.20;99.90
10905;DHT22;5505;51.450;9.254;2024-01-30T06:01:16;5.30;99.90
10905;DHT22;5505;51.450;9.254;2024-01-30T06:04:03;5.40;99.90
10905;DHT22;5505;51.450;9.254;2024-01-30T06:06:50;5.40;99.90
10905;DHT22;5505;51.450;9.254;2024-01-30T06:09:37;5.40;99.90
10905;DHT22;5505;51.450;9.254;2024-01-30T06:12:24;5.50;99.90
10905;DHT22;5505;51.450;9.254;2024-01-30T06:15:12;5.60;99.90
10905;DHT22;5505;51.450;9.254;2024-01-30T06:17:59;5.70;99.90
10905;DHT22;5505;51.450;9.254;2024-01-30T06:20:46;5.70;99.90
10905;DHT22;5505;51.450;9.254;2024-01-30T06:23:33;5.70;99.90
10905;DHT22;5505;51.450;9.254;2024-01-30T06:26:20;5.70;99.90
10905;DHT22;5505;51.450;9.254;2024-01-30T06:29:07;7.50;99.90
10905;DHT22;5505;51.450;9.254;2024-01-30T06:31:55;5.70;99.90
10905;DHT22;5505;51.450;9.254;2024-01-30T06:34:42;7.20;99.90
10905;DHT22;5505;51.450;9.254;2024-01-30T06:37:30;6.80;99.90
10905;DHT22;5505;51.450;9.254;2024-01-30T06:40:17;5.70;99.90
10905;DHT22;5505;51.450;9.254;2024-01-30T06:43:04;5.70;99.90
10905;DHT22;5505;51.450;9.254;2024-01-30T06:45:51;5.70;99.90
10905;DHT22;5505;51.450;9.254;2024-01-30T06:48:39;5.70;99.90
10905;DHT22;5505;51.450;9.254;2024-01-30T06:51:27;5.70;99.90
10905;DHT22;5505;51.450;9.254;2024-01-30T06:54:13;5.70;99.90
10905;DHT22;5505;51.450;9.254;2024-01-30T06:57:00;5.70;99.90
10905;DHT22;5505;51.450;9.254;2024-01-30T06:59:47;5.80;99.90
10905;DHT22;5505;51.450;9.254;2024-01-30T07:02:34;5.80;99.90
10905;DHT22;5505;51.450;9.254;2024-01-30T07:05:22;5.90;99.90
10905;DHT22;5505;51.450;9.254;2024-01-30T07:08:09;6.10;99.90
10905;DHT22;5505;51.450;9.254;2024-01-30T07:10:56;5.90;99.90
10905;DHT22;5505;51.450;9.254;2024-01-30T07:13:43;5.80;99.90
10905;DHT22;5505;51.450;9.254;2024-01-30T07:16:29;5.80;99.90
10905;DHT22;5505;51.450;9.254;2024-01-30T07:19:16;5.90;99.90
10905;DHT22;5505;51.450;9.254;2024-01-30T07:22:05;6.00;99.90
10905;DHT22;5505;51.450;9.254;2024-01-30T07:24:51;6.60;99.90
10905;DHT22;5505;51.450;9.254;2024-01-30T07:27:38;7.20;99.90
10905;DHT22;5505;51.450;9.254;2024-01-30T07:30:25;6.10;99.90
10905;DHT22;5505;51.450;9.254;2024-01-30T07:33:12;6.10;99.90
10905;DHT22;5505;51.450;9.254;2024-01-30T07:35:59;6.10;99.90
10905;DHT22;5505;51.450;9.254;2024-01-30T07:38:47;6.20;99.90
10905;DHT22;5505;51.450;9.254;2024-01-30T07:41:34;6.40;99.90
10905;DHT22;5505;51.450;9.254;2024-01-30T07:44:21;6.40;99.90
10905;DHT22;5505;51.450;9.254;2024-01-30T07:47:09;7.70;99.90
10905;DHT22;5505;51.450;9.254;2024-01-30T07:49:56;6.30;99.90
10905;DHT22;5505;51.450;9.254;2024-01-30T07:52:43;6.40;99.90
10905;DHT22;5505;51.450;9.254;2024-01-30T07:55:31;6.30;99.90
10905;DHT22;5505;51.450;9.254;2024-01-30T07:58:18;6.30;99.90
10905;DHT22;5505;51.450;9.254;2024-01-30T08:01:05;6.20;99.90
10905;DHT22;5505;51.450;9.254;2024-01-30T08:03:52;7.30;99.90
10905;DHT22;5505;51.450;9.254;2024-01-30T08:06:39;6.20;99.90
10905;DHT22;5505;51.450;9.254;2024-01-30T08:09:26;6.70;99.90
10905;DHT22;5505;51.450;9.254;2024-01-30T08:12:14;6.30;99.90
10905;DHT22;5505;51.450;9.254;2024-01-30T08:15:01;6.20;99.90
10905;DHT22;5505;51.450;9.254;2024-01-30T08:17:48;6.20;99.90
10905;DHT22;5505;51.450;9.254;2024-01-30T08:20:35;6.10;99.90
10905;DHT22;5505;51.450;9.254;2024-01-30T08:23:22;6.10;99.90
10905;DHT22;5505;51.450;9.254;2024-01-30T08:26:09;6.10;99.90
10905;DHT22;5505;51.450;9.254;2024-01-30T08:28:57;8.30;99.90
10905;DHT22;5505;51.450;9.254;2024-01-30T08:31:44;6.10;99.90
10905;DHT22;5505;51.450;9.254;2024-01-30T08:34:31;6.10;99.90
10905;DHT22;5505;51.450;9.254;2024-01-30T08:37:18;6.10;99.90
10905;DHT22;5505;51.450;9.254;2024-01-30T08:40:06;8.50;99.90
10905;DHT22;5505;51.450;9.254;2024-01-30T08:42:53;6.20;99.90
10905;DHT22;5505;51.450;9.254;2024-01-30T08:45:42;6.20;99.90
10905;DHT22;5505;51.450;9.254;2024-01-30T08:48:29;6.20;99.90
10905;DHT22;5505;51.450;9.254;2024-01-30T08:51:15;6.20;99.90
10905;DHT22;5505;51.450;9.254;2024-01-30T08:54:02;6.90;99.90
10905;DHT22;5505;51.450;9.254;2024-01-30T08:56:49;6.20;99.90
10905;DHT22;5505;51.450;9.254;2024-01-30T08:59:37;6.20;99.90
10905;DHT22;5505;51.450;9.254;2024-01-30T09:02:26;6.10;99.90
10905;DHT22;5505;51.450;9.254;2024-01-30T09:05:13;7.70;99.90
10905;DHT22;5505;51.450;9.254;2024-01-30T09:08:00;6.30;99.90
10905;DHT22;5505;51.450;9.254;2024-01-30T09:10:47;7.10;99.90
10905;DHT22;5505;51.450;9.254;2024-01-30T09:13:35;6.30;99.90
10905;DHT22;5505;51.450;9.254;2024-01-30T09:16:22;6.40;99.90
10905;DHT22;5505;51.450;9.254;2024-01-30T09:19:10;5.20;99.90
10905;DHT22;5505;51.450;9.254;2024-01-30T09:21:57;6.30;99.90
10905;DHT22;5505;51.450;9.254;2024-01-30T09:24:44;7.10;99.90
10905;DHT22;5505;51.450;9.254;2024-01-30T09:27:33;6.40;99.90
10905;DHT22;5505;51.450;9.254;2024-01-30T09:30:20;6.40;99.90
10905;DHT22;5505;51.450;9.254;2024-01-30T09:33:07;8.10;99.90
10905;DHT22;5505;51.450;9.254;2024-01-30T09:35:55;6.60;99.90
10905;DHT22;5505;51.450;9.254;2024-01-30T09:38:42;6.70;99.90
10905;DHT22;5505;51.450;9.254;2024-01-30T09:41:29;6.80;99.90
10905;DHT22;5505;51.450;9.254;2024-01-30T09:44:20;6.70;99.90
10905;DHT22;5505;51.450;9.254;2024-01-30T09:47:08;6.70;99.90
10905;DHT22;5505;51.450;9.254;2024-01-30T09:49:56;6.70;99.90
10905;DHT22;5505;51.450;9.254;2024-01-30T09:52:45;6.70;99.90
10905;DHT22;5505;51.450;9.254;2024-01-30T09:55:33;7.60;99.90
10905;DHT22;5505;51.450;9.254;2024-01-30T09:58:19;7.00;99.90
10905;DHT22;5505;51.450;9.254;2024-01-30T10:01:07;7.10;99.90
10905;DHT22;5505;51.450;9.254;2024-01-30T10:03:54;7.10;99.90
10905;DHT22;5505;51.450;9.254;2024-01-30T10:06:41;7.20;99.90
10905;DHT22;5505;51.450;9.254;2024-01-30T10:09:32;8.20;99.90
10905;DHT22;5505;51.450;9.254;2024-01-30T10:12:19;7.30;99.90
10905;DHT22;5505;51.450;9.254;2024-01-30T10:15:07;7.40;99.90
10905;DHT22;5505;51.450;9.254;2024-01-30T10:17:54;7.40;99.90
10905;DHT22;5505;51.450;9.254;2024-01-30T10:20:41;8.30;99.90
10905;DHT22;5505;51.450;9.254;2024-01-30T10:23:29;7.50;99.90
10905;DHT22;5505;51.450;9.254;2024-01-30T10:26:17;7.50;99.90
10905;DHT22;5505;51.450;9.254;2024-01-30T10:29:04;7.60;99.90
10905;DHT22;5505;51.450;9.254;2024-01-30T10:31:58;7.70;99.90
10905;DHT22;5505;51.450;9.254;2024-01-30T10:34:46;8.90;99.90
10905;DHT22;5505;51.450;9.254;2024-01-30T10:37:33;7.90;99.90
10905;DHT22;5505;51.450;9.254;2024-01-30T10:40:21;7.90;99.90
10905;DHT22;5505;51.450;9.254;2024-01-30T10:43:14;8.00;99.90
10905;DHT22;5505;51.450;9.254;2024-01-30T10:46:09;8.00;99.90
10905;DHT22;5505;51.450;9.254;2024-01-30T10:48:58;8.00;99.90
10905;DHT22;5505;51.450;9.254;2024-01-30T10:51:46;8.00;99.90
10905;DHT22;5505;51.450;9.254;2024-01-30T10:54:35;8.00;99.90
10905;DHT22;5505;51.450;9.254;2024-01-30T10:57:23;8.30;99.90
10905;DHT22;5505;51.450;9.254;2024-01-30T11:00:13;8.10;99.90
10905;DHT22;5505;51.450;9.254;2024-01-30T11:03:01;8.20;99.90
10905;DHT22;5505;51.450;9.254;2024-01-30T11:05:50;8.10;99.90
10905;DHT22;5505;51.450;9.254;2024-01-30T11:08:37;8.10;99.90
10905;DHT22;5505;51.450;9.254;2024-01-30T11:11:24;8.10;99.90
10905;DHT22;5505;51.450;9.254;2024-01-30T11:14:11;9.70;99.90
10905;DHT22;5505;51.450;9.254;2024-01-30T11:16:59;9.20;99.90
10905;DHT22;5505;51.450;9.254;2024-01-30T11:19:46;9.80;99.90
10905;DHT22;5505;51.450;9.254;2024-01-30T11:22:34;9.80;99.90
10905;DHT22;5505;51.450;9.254;2024-01-30T11:25:22;8.20;99.90
10905;DHT22;5505;51.450;9.254;2024-01-30T11:28:13;8.30;99.90
10905;DHT22;5505;51.450;9.254;2024-01-30T11:31:04;8.20;99.90
10905;DHT22;5505;51.450;9.254;2024-01-30T11:33:54;8.10;99.90
10905;DHT22;5505;51.450;9.254;2024-01-30T11:36:43;8.10;99.90
10905;DHT22;5505;51.450;9.254;2024-01-30T11:39:31;8.20;99.90
10905;DHT22;5505;51.450;9.254;2024-01-30T11:42:19;8.30;99.90
10905;DHT22;5505;51.450;9.254;2024-01-30T11:45:07;8.30;99.90
10905;DHT22;5505;51.450;9.254;2024-01-30T11:47:54;8.30;99.90
10905;DHT22;5505;51.450;9.254;2024-01-30T11:50:42;8.40;99.90
10905;DHT22;5505;51.450;9.254;2024-01-30T11:53:30;8.80;99.90
10905;DHT22;5505;51.450;9.254;2024-01-30T11:56:17;8.50;99.90
10905;DHT22;5505;51.450;9.254;2024-01-30T11:59:03;9.80;99.90
10905;DHT22;5505;51.450;9.254;2024-01-30T12:01:51;8.60;99.90
10905;DHT22;5505;51.450;9.254;2024-01-30T12:04:38;8.70;99.90
10905;DHT22;5505;51.450;9.254;2024-01-30T12:07:26;8.70;99.90
10905;DHT22;5505;51.450;9.254;2024-01-30T12:10:14;8.70;99.90
10905;DHT22;5505;51.450;9.254;2024-01-30T12:13:01;8.80;99.90
10905;DHT22;5505;51.450;9.254;2024-01-30T12:15:48;8.80;99.90
10905;DHT22;5505;51.450;9.254;2024-01-30T12:18:35;9.00;99.90
10905;DHT22;5505;51.450;9.254;2024-01-30T12:21:22;9.60;99.90
10905;DHT22;5505;51.450;9.254;2024-01-30T12:24:10;9.10;99.90
10905;DHT22;5505;51.450;9.254;2024-01-30T12:26:57;9.50;99.90
10905;DHT22;5505;51.450;9.254;2024-01-30T12:29:45;10.70;99.90
10905;DHT22;5505;51.450;9.254;2024-01-30T12:32:33;9.20;99.90
10905;DHT22;5505;51.450;9.254;2024-01-30T12:35:20;9.20;99.90
10905;DHT22;5505;51.450;9.254;2024-01-30T12:38:07;9.20;99.90
10905;DHT22;5505;51.450;9.254;2024-01-30T12:40:56;9.20;99.90
10905;DHT22;5505;51.450;9.254;2024-01-30T12:43:43;9.20;99.90
10905;DHT22;5505;51.450;9.254;2024-01-30T12:46:30;10.40;99.90
10905;DHT22;5505;51.450;9.254;2024-01-30T12:49:17;9.20;99.90
10905;DHT22;5505;51.450;9.254;2024-01-30T12:52:04;9.20;99.90
10905;DHT22;5505;51.450;9.254;2024-01-30T12:54:52;9.30;99.90
10905;DHT22;5505;51.450;9.254;2024-01-30T12:57:40;9.30;99.90
10905;DHT22;5505;51.450;9.254;2024-01-30T13:00:28;9.30;99.90
10905;DHT22;5505;51.450;9.254;2024-01-30T13:03:15;9.30;99.90
10905;DHT22;5505;51.450;9.254;2024-01-30T13:06:02;9.30;99.90
10905;DHT22;5505;51.450;9.254;2024-01-30T13:08:49;9.20;99.20
10905;DHT22;5505;51.450;9.254;2024-01-30T13:11:36;10.30;99.80
10905;DHT22;5505;51.450;9.254;2024-01-30T13:14:25;9.20;99.90
10905;DHT22;5505;51.450;9.254;2024-01-30T13:17:12;9.20;99.90
10905;DHT22;5505;51.450;9.254;2024-01-30T13:19:59;9.40;99.90
10905;DHT22;5505;51.450;9.254;2024-01-30T13:22:48;9.40;99.90
10905;DHT22;5505;51.450;9.254;2024-01-30T13:25:36;9.30;99.90
10905;DHT22;5505;51.450;9.254;2024-01-30T13:28:22;9.40;99.90
10905;DHT22;5505;51.450;9.254;2024-01-30T13:31:11;10.20;96.10
10905;DHT22;5505;51.450;9.254;2024-01-30T13:33:57;9.30;99.90
10905;DHT22;5505;51.450;9.254;2024-01-30T13:36:44;9.30;96.80
10905;DHT22;5505;51.450;9.254;2024-01-30T13:39:31;9.30;99.90
10905;DHT22;5505;51.450;9.254;2024-01-30T13:42:18;9.40;99.90
10905;DHT22;5505;51.450;9.254;2024-01-30T13:45:06;9.30;99.90
10905;DHT22;5505;51.450;9.254;2024-01-30T13:47:56;9.30;99.90
10905;DHT22;5505;51.450;9.254;2024-01-30T13:50:45;9.20;99.90
10905;DHT22;5505;51.450;9.254;2024-01-30T13:53:33;9.20;99.90
10905;DHT22;5505;51.450;9.254;2024-01-30T13:56:20;9.20;99.90
10905;DHT22;5505;51.450;9.254;2024-01-30T13:59:07;9.20;99.90
10905;DHT22;5505;51.450;9.254;2024-01-30T14:01:54;9.10;99.90
10905;DHT22;5505;51.450;9.254;2024-01-30T14:04:42;9.20;99.90
10905;DHT22;5505;51.450;9.254;2024-01-30T14:07:29;10.50;99.90
10905;DHT22;5505;51.450;9.254;2024-01-30T14:10:16;9.10;99.90
10905;DHT22;5505;51.450;9.254;2024-01-30T14:13:03;9.10;99.90
10905;DHT22;5505;51.450;9.254;2024-01-30T14:15:50;9.20;99.90
10905;DHT22;5505;51.450;9.254;2024-01-30T14:18:37;9.20;99.90
10905;DHT22;5505;51.450;9.254;2024-01-30T14:21:25;10.10;99.90
10905;DHT22;5505;51.450;9.254;2024-01-30T14:24:12;9.10;99.90
10905;DHT22;5505;51.450;9.254;2024-01-30T14:26:59;9.00;99.90
10905;DHT22;5505;51.450;9.254;2024-01-30T14:29:46;8.90;99.90
10905;DHT22;5505;51.450;9.254;2024-01-30T14:32:33;9.50;99.90
10905;DHT22;5505;51.450;9.254;2024-01-30T14:35:20;9.00;99.90
10905;DHT22;5505;51.450;9.254;2024-01-30T14:38:08;9.00;99.90
10905;DHT22;5505;51.450;9.254;2024-01-30T14:40:55;9.00;99.90
10905;DHT22;5505;51.450;9.254;2024-01-30T14:43:42;9.10;99.90
10905;DHT22;5505;51.450;9.254;2024-01-30T14:46:29;9.00;99.90
10905;DHT22;5505;51.450;9.254;2024-01-30T14:49:16;9.00;99.90
10905;DHT22;5505;51.450;9.254;2024-01-30T14:52:03;9.00;99.90
10905;DHT22;5505;51.450;9.254;2024-01-30T14:54:52;8.90;99.90
10905;DHT22;5505;51.450;9.254;2024-01-30T14:57:38;8.80;99.90
10905;DHT22;5505;51.450;9.254;2024-01-30T15:00:27;8.80;99.90
10905;DHT22;5505;51.450;9.254;2024-01-30T15:03:14;8.80;99.90
10905;DHT22;5505;51.450;9.254;2024-01-30T15:06:01;8.80;99.90
10905;DHT22;5505;51.450;9.254;2024-01-30T15:08:50;10.30;99.90
10905;DHT22;5505;51.450;9.254;2024-01-30T15:11:38;8.80;99.90
10905;DHT22;5505;51.450;9.254;2024-01-30T15:14:25;10.20;99.90
10905;DHT22;5505;51.450;9.254;2024-01-30T15:17:12;8.80;99.90
10905;DHT22;5505;51.450;9.254;2024-01-30T15:20:00;8.70;99.90
10905;DHT22;5505;51.450;9.254;2024-01-30T15:22:48;8.90;99.90
10905;DHT22;5505;51.450;9.254;2024-01-30T15:25:35;9.10;99.90
10905;DHT22;5505;51.450;9.254;2024-01-30T15:28:34;8.80;99.90
10905;DHT22;5505;51.450;9.254;2024-01-30T15:31:21;8.80;99.90
10905;DHT22;5505;51.450;9.254;2024-01-30T15:34:08;8.80;99.90
10905;DHT22;5505;51.450;9.254;2024-01-30T15:36:55;9.70;99.90
10905;DHT22;5505;51.450;9.254;2024-01-30T15:39:42;8.60;99.90
10905;DHT22;5505;51.450;9.254;2024-01-30T15:42:29;9.10;99.90
10905;DHT22;5505;51.450;9.254;2024-01-30T15:45:17;8.70;99.90
10905;DHT22;5505;51.450;9.254;2024-01-30T15:48:05;8.70;99.90
10905;DHT22;5505;51.450;9.254;2024-01-30T15:50:52;8.80;99.90
10905;DHT22;5505;51.450;9.254;2024-01-30T15:53:39;8.80;99.90
10905;DHT22;5505;51.450;9.254;2024-01-30T15:56:26;8.70;99.90
10905;DHT22;5505;51.450;9.254;2024-01-30T15:59:13;9.10;99.90
10905;DHT22;5505;51.450;9.254;2024-01-30T16:02:02;8.60;99.90
10905;DHT22;5505;51.450;9.254;2024-01-30T16:04:49;8.70;99.90
10905;DHT22;5505;51.450;9.254;2024-01-30T16:07:36;8.60;99.90
10905;DHT22;5505;51.450;9.254;2024-01-30T16:10:23;8.60;99.90
10905;DHT22;5505;51.450;9.254;2024-01-30T16:13:10;8.50;99.90
10905;DHT22;5505;51.450;9.254;2024-01-30T16:15:57;8.40;99.90
10905;DHT22;5505;51.450;9.254;2024-01-30T16:18:45;8.50;99.90
10905;DHT22;5505;51.450;9.254;2024-01-30T16:21:32;8.50;99.90
10905;DHT22;5505;51.450;9.254;2024-01-30T16:24:19;8.50;99.90
10905;DHT22;5505;51.450;9.254;2024-01-30T16:27:08;8.40;99.90
10905;DHT22;5505;51.450;9.254;2024-01-30T16:29:55;8.30;99.90
10905;DHT22;5505;51.450;9.254;2024-01-30T16:32:42;8.40;99.90
10905;DHT22;5505;51.450;9.254;2024-01-30T16:35:30;8.40;99.90
10905;DHT22;5505;51.450;9.254;2024-01-30T16:38:17;9.30;99.90
10905;DHT22;5505;51.450;9.254;2024-01-30T16:41:04;8.40;99.90
10905;DHT22;5505;51.450;9.254;2024-01-30T16:43:50;8.40;99.90
10905;DHT22;5505;51.450;9.254;2024-01-30T16:46:37;8.40;99.90
10905;DHT22;5505;51.450;9.254;2024-01-30T16:49:25;8.40;99.90
10905;DHT22;5505;51.450;9.254;2024-01-30T16:52:13;8.30;99.90
10905;DHT22;5505;51.450;9.254;2024-01-30T16:55:00;8.30;99.90
10905;DHT22;5505;51.450;9.254;2024-01-30T16:57:47;8.40;99.90
10905;DHT22;5505;51.450;9.254;2024-01-30T17:00:34;9.70;99.90
10905;DHT22;5505;51.450;9.254;2024-01-30T17:03:20;8.90;99.90
10905;DHT22;5505;51.450;9.254;2024-01-30T17:06:10;8.30;99.90
10905;DHT22;5505;51.450;9.254;2024-01-30T17:08:59;8.30;99.90
10905;DHT22;5505;51.450;9.254;2024-01-30T17:11:46;9.20;99.90
10905;DHT22;5505;51.450;9.254;2024-01-30T17:14:33;8.20;99.90
10905;DHT22;5505;51.450;9.254;2024-01-30T17:17:24;8.20;99.90
10905;DHT22;5505;51.450;9.254;2024-01-30T17:20:11;8.20;99.90
10905;DHT22;5505;51.450;9.254;2024-01-30T17:22:58;9.40;99.90
10905;DHT22;5505;51.450;9.254;2024-01-30T17:25:47;8.20;99.90
10905;DHT22;5505;51.450;9.254;2024-01-30T17:28:34;8.10;99.90
10905;DHT22;5505;51.450;9.254;2024-01-30T17:31:21;8.00;99.90
10905;DHT22;5505;51.450;9.254;2024-01-30T17:34:08;8.10;99.90
10905;DHT22;5505;51.450;9.254;2024-01-30T17:36:55;8.10;99.90
10905;DHT22;5505;51.450;9.254;2024-01-30T17:39:42;8.00;99.90
10905;DHT22;5505;51.450;9.254;2024-01-30T17:42:31;8.10;99.90
10905;DHT22;5505;51.450;9.254;2024-01-30T17:45:18;8.10;99.90
10905;DHT22;5505;51.450;9.254;2024-01-30T17:48:05;8.20;99.90
10905;DHT22;5505;51.450;9.254;2024-01-30T17:50:52;8.20;99.90
10905;DHT22;5505;51.450;9.254;2024-01-30T17:53:39;8.30;99.90
10905;DHT22;5505;51.450;9.254;2024-01-30T17:56:26;9.10;99.90
10905;DHT22;5505;51.450;9.254;2024-01-30T17:59:14;8.20;99.90
10905;DHT22;5505;51.450;9.254;2024-01-30T18:02:06;8.10;99.90
10905;DHT22;5505;51.450;9.254;2024-01-30T18:04:53;8.10;99.90
10905;DHT22;5505;51.450;9.254;2024-01-30T18:07:40;8.10;99.90
10905;DHT22;5505;51.450;9.254;2024-01-30T18:10:29;8.10;99.90
10905;DHT22;5505;51.450;9.254;2024-01-30T18:13:16;8.80;99.90